sensor_id;sensor_type;location;lat;lon;timestamp;temperature;humidity
17992;DHT22;9121;50.926;5.340;2023-08-21T00:00:48;22.50;99.90
17992;DHT22;9121;50.926;5.340;2023-08-21T00:03:15;22.40;99.90
17992;DHT22;9121;50.926;5.340;2023-08-21T00:05:42;22.30;99.90
17992;DHT22;9121;50.926;5.340;2023-08-21T00:08:09;22.30;99.90
17992;DHT22;9121;50.926;5.340;2023-08-21T00:10:37;22.20;99.90
17992;DHT22;9121;50.926;5.340;2023-08-21T00:13:04;22.20;99.90
17992;DHT22;9121;50.926;5.340;2023-08-21T00:15:33;22.20;99.90
17992;DHT22;9121;50.926;5.340;2023-08-21T00:18:00;22.20;99.90
17992;DHT22;9121;50.926;5.340;2023-08-21T00:20:27;22.20;99.90
17992;DHT22;9121;50.926;5.340;2023-08-21T00:22:54;22.20;99.90
17992;DHT22;9121;50.926;5.340;2023-08-21T00:25:21;22.10;99.90
17992;DHT22;9121;50.926;5.340;2023-08-21T00:27:48;22.10;99.90
17992;DHT22;9121;50.926;5.340;2023-08-21T00:30:15;22.10;99.90
17992;DHT22;9121;50.926;5.340;2023-08-21T00:32:43;22.10;99.90
17992;DHT22;9121;50.926;5.340;2023-08-21T00:35:10;22.10;99.90
17992;DHT22;9121;50.926;5.340;2023-08-21T00:37:37;22.10;99.90
17992;DHT22;9121;50.926;5.340;2023-08-21T00:40:05;22.10;99.90
17992;DHT22;9121;50.926;5.340;2023-08-21T00:42:32;22.10;99.90
17992;DHT22;9121;50.926;5.340;2023-08-21T00:44:59;22.10;99.90
17992;DHT22;9121;50.926;5.340;2023-08-21T00:47:26;22.10;99.90
17992;DHT22;9121;50.926;5.340;2023-08-21T00:49:54;22.10;99.90
17992;DHT22;9121;50.926;5.340;2023-08-21T00:52:22;22.10;99.90
17992;DHT22;9121;50.926;5.340;2023-08-21T00:54:49;22.10;99.90
17992;DHT22;9121;50.926;5.340;2023-08-21T00:57:16;22.20;99.90
17992;DHT22;9121;50.926;5.340;2023-08-21T00:59:44;22.10;99.90
17992;DHT22;9121;50.926;5.340;2023-08-21T01:02:11;22.10;99.90
17992;DHT22;9121;50.926;5.340;2023-08-21T01:04:38;22.10;99.90
17992;DHT22;9121;50.926;5.340;2023-08-21T01:07:06;22.10;99.90
17992;DHT22;9121;50.926;5.340;2023-08-21T01:09:41;22.10;99.90
17992;DHT22;9121;50.926;5.340;2023-08-21T01:12:19;22.10;99.90
17992;DHT22;9121;50.926;5.340;2023-08-21T01:14:57;22.10;99.90
17992;DHT22;9121;50.926;5.340;2023-08-21T01:17:25;22.10;99.90
17992;DHT22;9121;50.926;5.340;2023-08-21T01:19:53;22.10;99.90
17992;DHT22;9121;50.926;5.340;2023-08-21T01:22:25;22.10;99.90
17992;DHT22;9121;50.926;5.340;2023-08-21T01:24:54;22.00;99.90
17992;DHT22;9121;50.926;5.340;2023-08-21T01:27:21;22.00;99.90
17992;DHT22;9121;50.926;5.340;2023-08-21T01:29:48;22.00;99.90
17992;DHT22;9121;50.926;5.340;2023-08-21T01:32:23;21.90;99.90
17992;DHT22;9121;50.926;5.340;2023-08-21T01:34:55;21.90;99.90
17992;DHT22;9121;50.926;5.340;2023-08-21T01:37:24;21.90;99.90
17992;DHT22;9121;50.926;5.340;2023-08-21T01:39:51;22.00;99.90
17992;DHT22;9121;50.926;5.340;2023-08-21T01:42:19;21.90;99.90
17992;DHT22;9121;50.926;5.340;2023-08-21T01:44:46;21.80;99.90
17992;DHT22;9121;50.926;5.340;2023-08-21T01:47:13;21.80;99.90
17992;DHT22;9121;50.926;5.340;2023-08-21T01:49:40;21.80;99.90
17992;DHT22;9121;50.926;5.340;2023-08-21T01:52:07;21.70;99.90
17992;DHT22;9121;50.926;5.340;2023-08-21T01:54:35;21.60;99.90
17992;DHT22;9121;50.926;5.340;2023-08-21T01:57:02;21.50;99.90
17992;DHT22;9121;50.926;5.340;2023-08-21T01:59:30;21.50;99.90
17992;DHT22;9121;50.926;5.340;2023-08-21T02:01:57;21.50;99.90
17992;DHT22;9121;50.926;5.340;2023-08-21T02:04:24;21.40;99.90
17992;DHT22;9121;50.926;5.340;2023-08-21T02:06:51;21.40;99.90
17992;DHT22;9121;50.926;5.340;2023-08-21T02:09:18;21.40;99.90
17992;DHT22;9121;50.926;5.340;2023-08-21T02:11:45;21.30;99.90
17992;DHT22;9121;50.926;5.340;2023-08-21T02:14:12;21.30;99.90
17992;DHT22;9121;50.926;5.340;2023-08-21T02:16:40;21.40;99.90
17992;DHT22;9121;50.926;5.340;2023-08-21T02:19:07;21.40;99.90
17992;DHT22;9121;50.926;5.340;2023-08-21T02:21:34;21.40;99.90
17992;DHT22;9121;50.926;5.340;2023-08-21T02:24:02;21.40;99.90
17992;DHT22;9121;50.926;5.340;2023-08-21T02:26:29;21.40;99.90
17992;DHT22;9121;50.926;5.340;2023-08-21T02:28:55;21.30;99.90
17992;DHT22;9121;50.926;5.340;2023-08-21T02:31:23;21.20;99.90
17992;DHT22;9121;50.926;5.340;2023-08-21T02:33:51;21.10;99.90
17992;DHT22;9121;50.926;5.340;2023-08-21T02:36:18;21.10;99.90
17992;DHT22;9121;50.926;5.340;2023-08-21T02:38:45;21.10;99.90
17992;DHT22;9121;50.926;5.340;2023-08-21T02:41:12;21.10;99.90
17992;DHT22;9121;50.926;5.340;2023-08-21T02:43:39;21.10;99.90
17992;DHT22;9121;50.926;5.340;2023-08-21T02:46:06;21.10;99.90
17992;DHT22;9121;50.926;5.340;2023-08-21T02:48:33;21.10;99.90
17992;DHT22;9121;50.926;5.340;2023-08-21T02:51:01;21.10;99.90
17992;DHT22;9121;50.926;5.340;2023-08-21T02:53:28;21.10;99.90
17992;DHT22;9121;50.926;5.340;2023-08-21T02:55:55;21.10;99.90
17992;DHT22;9121;50.926;5.340;2023-08-21T02:58:22;21.00;99.90
17992;DHT22;9121;50.926;5.340;2023-08-21T03:00:49;21.00;99.90
17992;DHT22;9121;50.926;5.340;2023-08-21T03:03:16;21.00;99.90
17992;DHT22;9121;50.926;5.340;2023-08-21T03:05:43;21.00;99.90
17992;DHT22;9121;50.926;5.340;2023-08-21T03:08:11;21.10;99.90
17992;DHT22;9121;50.926;5.340;2023-08-21T03:10:38;21.10;99.90
17992;DHT22;9121;50.926;5.340;2023-08-21T03:13:05;21.10;99.90
17992;DHT22;9121;50.926;5.340;2023-08-21T03:15:31;21.10;99.90
17992;DHT22;9121;50.926;5.340;2023-08-21T03:17:58;21.00;99.90
17992;DHT22;9121;50.926;5.340;2023-08-21T03:20:25;21.00;99.90
17992;DHT22;9121;50.926;5.340;2023-08-21T03:22:52;21.00;99.90
17992;DHT22;9121;50.926;5.340;2023-08-21T03:25:21;21.00;99.90
17992;DHT22;9121;50.926;5.340;2023-08-21T03:27:47;21.00;99.90
17992;DHT22;9121;50.926;5.340;2023-08-21T03:30:15;21.00;99.90
17992;DHT22;9121;50.926;5.340;2023-08-21T03:32:42;21.00;99.90
17992;DHT22;9121;50.926;5.340;2023-08-21T03:35:09;21.00;99.90
17992;DHT22;9121;50.926;5.340;2023-08-21T03:37:36;20.90;99.90
17992;DHT22;9121;50.926;5.340;2023-08-21T03:40:03;21.00;99.90
17992;DHT22;9121;50.926;5.340;2023-08-21T03:42:32;21.00;99.90
17992;DHT22;9121;50.926;5.340;2023-08-21T03:44:59;20.90;99.90
17992;DHT22;9121;50.926;5.340;2023-08-21T03:47:26;20.90;99.90
17992;DHT22;9121;50.926;5.340;2023-08-21T03:49:53;20.80;99.90
17992;DHT22;9121;50.926;5.340;2023-08-21T03:52:19;20.70;99.90
17992;DHT22;9121;50.926;5.340;2023-08-21T03:54:46;20.50;99.90
17992;DHT22;9121;50.926;5.340;2023-08-21T03:57:13;20.50;99.90
17992;DHT22;9121;50.926;5.340;2023-08-21T03:59:41;20.60;99.90
17992;DHT22;9121;50.926;5.340;2023-08-21T04:02:08;20.60;99.90
17992;DHT22;9121;50.926;5.340;2023-08-21T04:04:35;20.70;99.90
17992;DHT22;9121;50.926;5.340;2023-08-21T04:07:02;20.70;99.90
17992;DHT22;9121;50.926;5.340;2023-08-21T04:09:29;20.60;99.90
17992;DHT22;9121;50.926;5.340;2023-08-21T04:11:56;20.60;99.90
17992;DHT22;9121;50.926;5.340;2023-08-21T04:14:23;20.50;99.90
17992;DHT22;9121;50.926;5.340;2023-08-21T04:16:51;20.50;99.90
17992;DHT22;9121;50.926;5.340;2023-08-21T04:19:18;20.50;99.90
17992;DHT22;9121;50.926;5.340;2023-08-21T04:21:45;20.50;99.90
17992;DHT22;9121;50.926;5.340;2023-08-21T04:24:12;20.60;99.90
17992;DHT22;9121;50.926;5.340;2023-08-21T04:26:39;20.50;99.90
17992;DHT22;9121;50.926;5.340;2023-08-21T04:29:06;20.50;99.90
17992;DHT22;9121;50.926;5.340;2023-08-21T04:31:33;20.60;99.90
17992;DHT22;9121;50.926;5.340;2023-08-21T04:34:01;20.70;99.90
17992;DHT22;9121;50.926;5.340;2023-08-21T04:36:29;20.70;99.90
17992;DHT22;9121;50.926;5.340;2023-08-21T04:38:56;20.70;99.90
17992;DHT22;9121;50.926;5.340;2023-08-21T04:41:23;20.70;99.90
17992;DHT22;9121;50.926;5.340;2023-08-21T04:43:50;20.60;99.90
17992;DHT22;9121;50.926;5.340;2023-08-21T04:46:17;20.60;99.90
17992;DHT22;9121;50.926;5.340;2023-08-21T04:48:45;20.60;99.90
17992;DHT22;9121;50.926;5.340;2023-08-21T04:51:14;20.60;99.90
17992;DHT22;9121;50.926;5.340;2023-08-21T04:53:41;20.50;99.90
17992;DHT22;9121;50.926;5.340;2023-08-21T04:56:08;20.50;99.90
17992;DHT22;9121;50.926;5.340;2023-08-21T04:58:35;20.50;99.90
17992;DHT22;9121;50.926;5.340;2023-08-21T05:01:02;20.50;99.90
17992;DHT22;9121;50.926;5.340;2023-08-21T05:03:30;20.60;99.90
17992;DHT22;9121;50.926;5.340;2023-08-21T05:05:57;20.60;99.90
17992;DHT22;9121;50.926;5.340;2023-08-21T05:08:26;20.70;99.90
17992;DHT22;9121;50.926;5.340;2023-08-21T05:10:56;20.70;99.90
17992;DHT22;9121;50.926;5.340;2023-08-21T05:13:23;20.60;99.90
17992;DHT22;9121;50.926;5.340;2023-08-21T05:15:54;20.60;99.90
17992;DHT22;9121;50.926;5.340;2023-08-21T05:18:21;20.50;99.90
17992;DHT22;9121;50.926;5.340;2023-08-21T05:20:48;20.60;99.90
17992;DHT22;9121;50.926;5.340;2023-08-21T05:23:15;20.60;99.90
17992;DHT22;9121;50.926;5.340;2023-08-21T05:25:45;20.60;99.90
17992;DHT22;9121;50.926;5.340;2023-08-21T05:28:12;20.60;99.90
17992;DHT22;9121;50.926;5.340;2023-08-21T05:30:39;20.60;99.90
17992;DHT22;9121;50.926;5.340;2023-08-21T05:33:06;20.70;99.90
17992;DHT22;9121;50.926;5.340;2023-08-21T05:35:33;20.70;99.90
17992;DHT22;9121;50.926;5.340;2023-08-21T05:38:01;20.70;99.90
17992;DHT22;9121;50.926;5.340;2023-08-21T05:40:28;20.70;99.90
17992;DHT22;9121;50.926;5.340;2023-08-21T05:42:57;20.60;99.90
17992;DHT22;9121;50.926;5.340;2023-08-21T05:45:24;20.70;99.90
17992;DHT22;9121;50.926;5.340;2023-08-21T05:47:51;20.80;99.90
17992;DHT22;9121;50.926;5.340;2023-08-21T05:50:21;20.90;99.90
17992;DHT22;9121;50.926;5.340;2023-08-21T05:52:48;20.80;99.90
17992;DHT22;9121;50.926;5.340;2023-08-21T05:55:15;20.90;99.90
17992;DHT22;9121;50.926;5.340;2023-08-21T05:57:42;20.90;99.90
17992;DHT22;9121;50.926;5.340;2023-08-21T06:00:12;20.80;99.90
17992;DHT22;9121;50.926;5.340;2023-08-21T06:02:39;20.80;99.90
17992;DHT22;9121;50.926;5.340;2023-08-21T06:05:08;20.90;99.90
17992;DHT22;9121;50.926;5.340;2023-08-21T06:07:35;20.90;99.90
17992;DHT22;9121;50.926;5.340;2023-08-21T06:10:01;20.90;99.90
17992;DHT22;9121;50.926;5.340;2023-08-21T06:12:30;20.90;99.90
17992;DHT22;9121;50.926;5.340;2023-08-21T06:14:57;21.00;99.90
17992;DHT22;9121;50.926;5.340;2023-08-21T06:17:27;21.00;99.90
17992;DHT22;9121;50.926;5.340;2023-08-21T06:19:54;21.10;99.90
17992;DHT22;9121;50.926;5.340;2023-08-21T06:22:21;21.20;99.90
17992;DHT22;9121;50.926;5.340;2023-08-21T06:24:48;21.20;99.90
17992;DHT22;9121;50.926;5.340;2023-08-21T06:27:15;21.20;99.90
17992;DHT22;9121;50.926;5.340;2023-08-21T06:29:42;21.30;99.90
17992;DHT22;9121;50.926;5.340;2023-08-21T06:32:09;21.30;99.90
17992;DHT22;9121;50.926;5.340;2023-08-21T06:34:37;21.40;99.90
17992;DHT22;9121;50.926;5.340;2023-08-21T06:37:04;21.40;99.90
17992;DHT22;9121;50.926;5.340;2023-08-21T06:39:31;21.40;99.90
17992;DHT22;9121;50.926;5.340;2023-08-21T06:41:58;21.50;99.90
17992;DHT22;9121;50.926;5.340;2023-08-21T06:44:26;21.70;99.90
17992;DHT22;9121;50.926;5.340;2023-08-21T06:46:53;21.80;99.90
17992;DHT22;9121;50.926;5.340;2023-08-21T06:49:19;22.00;99.90
17992;DHT22;9121;50.926;5.340;2023-08-21T06:51:48;22.20;99.90
17992;DHT22;9121;50.926;5.340;2023-08-21T06:54:15;22.40;99.90
17992;DHT22;9121;50.926;5.340;2023-08-21T06:56:43;22.50;99.90
17992;DHT22;9121;50.926;5.340;2023-08-21T06:59:10;22.60;99.90
17992;DHT22;9121;50.926;5.340;2023-08-21T07:01:37;22.50;99.90
17992;DHT22;9121;50.926;5.340;2023-08-21T07:04:04;22.40;99.90
17992;DHT22;9121;50.926;5.340;2023-08-21T07:06:31;22.40;99.90
17992;DHT22;9121;50.926;5.340;2023-08-21T07:08:59;22.40;99.90
17992;DHT22;9121;50.926;5.340;2023-08-21T07:11:26;22.40;99.90
17992;DHT22;9121;50.926;5.340;2023-08-21T07:13:53;22.50;99.90
17992;DHT22;9121;50.926;5.340;2023-08-21T07:16:20;22.60;99.90
17992;DHT22;9121;50.926;5.340;2023-08-21T07:18:47;22.60;99.90
17992;DHT22;9121;50.926;5.340;2023-08-21T07:21:14;22.60;99.90
17992;DHT22;9121;50.926;5.340;2023-08-21T07:23:41;22.70;99.90
17992;DHT22;9121;50.926;5.340;2023-08-21T07:26:10;22.60;99.90
17992;DHT22;9121;50.926;5.340;2023-08-21T07:28:36;22.70;99.90
17992;DHT22;9121;50.926;5.340;2023-08-21T07:31:04;22.80;99.90
17992;DHT22;9121;50.926;5.340;2023-08-21T07:33:30;22.80;99.90
17992;DHT22;9121;50.926;5.340;2023-08-21T07:35:58;22.90;99.90
17992;DHT22;9121;50.926;5.340;2023-08-21T07:38:25;23.10;99.90
17992;DHT22;9121;50.926;5.340;2023-08-21T07:41:02;23.10;99.90
17992;DHT22;9121;50.926;5.340;2023-08-21T07:43:31;23.20;99.90
17992;DHT22;9121;50.926;5.340;2023-08-21T07:46:01;23.30;99.90
17992;DHT22;9121;50.926;5.340;2023-08-21T07:48:28;23.40;99.90
17992;DHT22;9121;50.926;5.340;2023-08-21T07:50:55;23.30;99.90
17992;DHT22;9121;50.926;5.340;2023-08-21T07:53:22;23.30;99.90
17992;DHT22;9121;50.926;5.340;2023-08-21T07:55:49;23.30;99.90
17992;DHT22;9121;50.926;5.340;2023-08-21T07:58:16;23.30;99.90
17992;DHT22;9121;50.926;5.340;2023-08-21T08:00:44;23.30;99.90
17992;DHT22;9121;50.926;5.340;2023-08-21T08:03:11;23.50;99.90
17992;DHT22;9121;50.926;5.340;2023-08-21T08:05:40;23.60;99.90
17992;DHT22;9121;50.926;5.340;2023-08-21T08:08:07;23.70;99.90
17992;DHT22;9121;50.926;5.340;2023-08-21T08:10:37;23.80;99.90
17992;DHT22;9121;50.926;5.340;2023-08-21T08:13:04;23.90;99.90
17992;DHT22;9121;50.926;5.340;2023-08-21T08:15:31;24.00;99.90
17992;DHT22;9121;50.926;5.340;2023-08-21T08:18:01;24.10;99.90
17992;DHT22;9121;50.926;5.340;2023-08-21T08:20:28;24.10;99.90
17992;DHT22;9121;50.926;5.340;2023-08-21T08:22:55;24.10;99.90
17992;DHT22;9121;50.926;5.340;2023-08-21T08:25:22;24.10;99.90
17992;DHT22;9121;50.926;5.340;2023-08-21T08:27:51;24.10;99.90
17992;DHT22;9121;50.926;5.340;2023-08-21T08:30:18;24.20;99.90
17992;DHT22;9121;50.926;5.340;2023-08-21T08:32:45;24.30;99.90
17992;DHT22;9121;50.926;5.340;2023-08-21T08:35:14;24.40;99.90
17992;DHT22;9121;50.926;5.340;2023-08-21T08:37:41;24.30;99.90
17992;DHT22;9121;50.926;5.340;2023-08-21T08:40:10;24.30;99.90
17992;DHT22;9121;50.926;5.340;2023-08-21T08:42:38;24.30;99.90
17992;DHT22;9121;50.926;5.340;2023-08-21T08:45:06;24.50;99.90
17992;DHT22;9121;50.926;5.340;2023-08-21T08:47:34;24.60;99.90
17992;DHT22;9121;50.926;5.340;2023-08-21T08:50:02;24.50;99.90
17992;DHT22;9121;50.926;5.340;2023-08-21T08:52:35;24.50;99.90
17992;DHT22;9121;50.926;5.340;2023-08-21T08:55:03;24.70;99.90
17992;DHT22;9121;50.926;5.340;2023-08-21T08:57:32;24.90;99.90
17992;DHT22;9121;50.926;5.340;2023-08-21T08:59:59;24.80;99.90
17992;DHT22;9121;50.926;5.340;2023-08-21T09:02:26;24.80;99.90
17992;DHT22;9121;50.926;5.340;2023-08-21T09:04:53;24.80;99.90
17992;DHT22;9121;50.926;5.340;2023-08-21T09:07:20;24.90;99.90
17992;DHT22;9121;50.926;5.340;2023-08-21T09:09:49;25.00;99.90
17992;DHT22;9121;50.926;5.340;2023-08-21T09:12:18;25.20;99.90
17992;DHT22;9121;50.926;5.340;2023-08-21T09:14:46;25.30;99.90
17992;DHT22;9121;50.926;5.340;2023-08-21T09:17:13;25.40;99.90
17992;DHT22;9121;50.926;5.340;2023-08-21T09:19:41;25.40;99.90
17992;DHT22;9121;50.926;5.340;2023-08-21T09:22:10;25.40;99.90
17992;DHT22;9121;50.926;5.340;2023-08-21T09:24:38;25.50;99.90
17992;DHT22;9121;50.926;5.340;2023-08-21T09:27:15;25.50;99.90
17992;DHT22;9121;50.926;5.340;2023-08-21T09:29:42;25.50;99.90
17992;DHT22;9121;50.926;5.340;2023-08-21T09:32:13;25.50;99.90
17992;DHT22;9121;50.926;5.340;2023-08-21T09:34:41;25.40;99.90
17992;DHT22;9121;50.926;5.340;2023-08-21T09:37:10;25.50;99.90
17992;DHT22;9121;50.926;5.340;2023-08-21T09:39:37;25.60;99.90
17992;DHT22;9121;50.926;5.340;2023-08-21T09:42:07;25.70;99.90
17992;DHT22;9121;50.926;5.340;2023-08-21T09:44:40;25.60;99.90
17992;DHT22;9121;50.926;5.340;2023-08-21T09:47:09;25.60;99.90
17992;DHT22;9121;50.926;5.340;2023-08-21T09:49:37;25.60;99.90
17992;DHT22;9121;50.926;5.340;2023-08-21T09:52:05;25.60;99.90
17992;DHT22;9121;50.926;5.340;2023-08-21T09:54:33;25.60;99.90
17992;DHT22;9121;50.926;5.340;2023-08-21T09:57:02;25.70;99.90
17992;DHT22;9121;50.926;5.340;2023-08-21T09:59:30;25.90;99.90
17992;DHT22;9121;50.926;5.340;2023-08-21T10:01:59;25.90;99.90
17992;DHT22;9121;50.926;5.340;2023-08-21T10:04:28;25.80;99.90
17992;DHT22;9121;50.926;5.340;2023-08-21T10:06:56;25.70;99.90
17992;DHT22;9121;50.926;5.340;2023-08-21T10:09:24;25.70;99.90
17992;DHT22;9121;50.926;5.340;2023-08-21T10:11:53;25.70;99.90
17992;DHT22;9121;50.926;5.340;2023-08-21T10:14:22;25.80;99.90
17992;DHT22;9121;50.926;5.340;2023-08-21T10:16:51;25.90;99.90
17992;DHT22;9121;50.926;5.340;2023-08-21T10:19:20;25.90;99.90
17992;DHT22;9121;50.926;5.340;2023-08-21T10:21:47;26.00;99.90
17992;DHT22;9121;50.926;5.340;2023-08-21T10:24:27;26.10;99.90
17992;DHT22;9121;50.926;5.340;2023-08-21T10:26:58;26.10;99.90
17992;DHT22;9121;50.926;5.340;2023-08-21T10:29:26;26.10;99.90
17992;DHT22;9121;50.926;5.340;2023-08-21T10:31:59;26.10;99.90
17992;DHT22;9121;50.926;5.340;2023-08-21T10:34:33;26.10;99.90
17992;DHT22;9121;50.926;5.340;2023-08-21T10:37:06;26.20;99.90
17992;DHT22;9121;50.926;5.340;2023-08-21T10:39:35;26.20;99.90
17992;DHT22;9121;50.926;5.340;2023-08-21T10:42:05;26.30;99.90
17992;DHT22;9121;50.926;5.340;2023-08-21T10:44:52;26.30;99.90
17992;DHT22;9121;50.926;5.340;2023-08-21T10:47:23;26.40;99.90
17992;DHT22;9121;50.926;5.340;2023-08-21T10:49:52;26.40;99.90
17992;DHT22;9121;50.926;5.340;2023-08-21T10:52:24;26.30;99.90
17992;DHT22;9121;50.926;5.340;2023-08-21T10:54:52;26.30;99.90
17992;DHT22;9121;50.926;5.340;2023-08-21T10:57:20;26.20;99.90
17992;DHT22;9121;50.926;5.340;2023-08-21T10:59:54;26.10;99.90
17992;DHT22;9121;50.926;5.340;2023-08-21T11:02:22;26.30;99.90
17992;DHT22;9121;50.926;5.340;2023-08-21T11:04:52;26.30;99.90
17992;DHT22;9121;50.926;5.340;2023-08-21T11:07:19;26.40;99.90
17992;DHT22;9121;50.926;5.340;2023-08-21T11:09:47;26.40;99.90
17992;DHT22;9121;50.926;5.340;2023-08-21T11:12:15;26.40;99.90
17992;DHT22;9121;50.926;5.340;2023-08-21T11:14:43;26.50;99.90
17992;DHT22;9121;50.926;5.340;2023-08-21T11:17:11;26.80;99.90
17992;DHT22;9121;50.926;5.340;2023-08-21T11:19:39;26.80;99.90
17992;DHT22;9121;50.926;5.340;2023-08-21T11:22:08;26.90;99.90
17992;DHT22;9121;50.926;5.340;2023-08-21T11:24:43;27.00;99.90
17992;DHT22;9121;50.926;5.340;2023-08-21T11:27:12;27.10;99.90
17992;DHT22;9121;50.926;5.340;2023-08-21T11:29:41;27.00;99.90
17992;DHT22;9121;50.926;5.340;2023-08-21T11:32:12;27.10;99.90
17992;DHT22;9121;50.926;5.340;2023-08-21T11:34:40;27.20;99.90
17992;DHT22;9121;50.926;5.340;2023-08-21T11:37:08;27.20;99.90
17992;DHT22;9121;50.926;5.340;2023-08-21T11:39:42;27.10;99.90
17992;DHT22;9121;50.926;5.340;2023-08-21T11:42:10;27.10;99.90
17992;DHT22;9121;50.926;5.340;2023-08-21T11:44:46;27.10;99.90
17992;DHT22;9121;50.926;5.340;2023-08-21T11:47:14;27.00;99.90
17992;DHT22;9121;50.926;5.340;2023-08-21T11:49:42;27.10;99.90
17992;DHT22;9121;50.926;5.340;2023-08-21T11:52:11;27.30;99.90
17992;DHT22;9121;50.926;5.340;2023-08-21T11:54:39;27.60;99.90
17992;DHT22;9121;50.926;5.340;2023-08-21T11:57:08;28.00;99.90
17992;DHT22;9121;50.926;5.340;2023-08-21T11:59:36;28.30;99.90
17992;DHT22;9121;50.926;5.340;2023-08-21T12:02:10;28.30;99.90
17992;DHT22;9121;50.926;5.340;2023-08-21T12:04:37;28.20;99.90
17992;DHT22;9121;50.926;5.340;2023-08-21T12:07:04;28.00;99.90
17992;DHT22;9121;50.926;5.340;2023-08-21T12:09:32;27.80;99.90
17992;DHT22;9121;50.926;5.340;2023-08-21T12:11:59;27.60;99.90
17992;DHT22;9121;50.926;5.340;2023-08-21T12:14:28;27.40;99.90
17992;DHT22;9121;50.926;5.340;2023-08-21T12:16:55;27.30;99.90
17992;DHT22;9121;50.926;5.340;2023-08-21T12:19:22;27.30;99.90
17992;DHT22;9121;50.926;5.340;2023-08-21T12:21:50;27.60;99.90
17992;DHT22;9121;50.926;5.340;2023-08-21T12:24:17;28.20;99.90
17992;DHT22;9121;50.926;5.340;2023-08-21T12:26:45;28.80;99.90
17992;DHT22;9121;50.926;5.340;2023-08-21T12:29:12;29.10;99.90
17992;DHT22;9121;50.926;5.340;2023-08-21T12:31:39;29.00;99.90
17992;DHT22;9121;50.926;5.340;2023-08-21T12:34:06;28.90;99.90
17992;DHT22;9121;50.926;5.340;2023-08-21T12:36:34;28.50;99.90
17992;DHT22;9121;50.926;5.340;2023-08-21T12:39:02;28.50;99.90
17992;DHT22;9121;50.926;5.340;2023-08-21T12:41:31;28.60;99.90
17992;DHT22;9121;50.926;5.340;2023-08-21T12:44:00;28.50;99.90
17992;DHT22;9121;50.926;5.340;2023-08-21T12:46:28;29.00;99.90
17992;DHT22;9121;50.926;5.340;2023-08-21T12:48:56;30.00;99.90
17992;DHT22;9121;50.926;5.340;2023-08-21T12:51:23;30.80;99.90
17992;DHT22;9121;50.926;5.340;2023-08-21T12:53:49;31.20;99.90
17992;DHT22;9121;50.926;5.340;2023-08-21T12:56:16;31.50;99.90
17992;DHT22;9121;50.926;5.340;2023-08-21T12:58:43;31.40;99.90
17992;DHT22;9121;50.926;5.340;2023-08-21T13:01:12;31.00;99.90
17992;DHT22;9121;50.926;5.340;2023-08-21T13:03:39;30.10;99.90
17992;DHT22;9121;50.926;5.340;2023-08-21T13:06:06;29.60;99.90
17992;DHT22;9121;50.926;5.340;2023-08-21T13:08:32;29.70;99.90
17992;DHT22;9121;50.926;5.340;2023-08-21T13:10:59;30.20;99.90
17992;DHT22;9121;50.926;5.340;2023-08-21T13:13:28;30.30;99.90
17992;DHT22;9121;50.926;5.340;2023-08-21T13:15:55;30.20;99.90
17992;DHT22;9121;50.926;5.340;2023-08-21T13:18:23;30.00;99.90
17992;DHT22;9121;50.926;5.340;2023-08-21T13:20:50;30.30;99.90
17992;DHT22;9121;50.926;5.340;2023-08-21T13:23:17;30.90;99.90
17992;DHT22;9121;50.926;5.340;2023-08-21T13:25:44;31.10;99.80
17992;DHT22;9121;50.926;5.340;2023-08-21T13:28:11;31.60;99.60
17992;DHT22;9121;50.926;5.340;2023-08-21T13:30:38;31.70;99.20
17992;DHT22;9121;50.926;5.340;2023-08-21T13:33:05;31.90;98.50
17992;DHT22;9121;50.926;5.340;2023-08-21T13:35:34;31.80;98.60
17992;DHT22;9121;50.926;5.340;2023-08-21T13:38:00;31.90;98.30
17992;DHT22;9121;50.926;5.340;2023-08-21T13:40:29;32.00;97.90
17992;DHT22;9121;50.926;5.340;2023-08-21T13:42:56;32.30;98.10
17992;DHT22;9121;50.926;5.340;2023-08-21T13:45:23;32.70;97.50
17992;DHT22;9121;50.926;5.340;2023-08-21T13:47:50;33.00;96.60
17992;DHT22;9121;50.926;5.340;2023-08-21T13:50:18;33.20;96.50
17992;DHT22;9121;50.926;5.340;2023-08-21T13:52:47;33.30;95.90
17992;DHT22;9121;50.926;5.340;2023-08-21T13:55:14;33.40;95.30
17992;DHT22;9121;50.926;5.340;2023-08-21T13:57:42;33.80;95.20
17992;DHT22;9121;50.926;5.340;2023-08-21T14:00:11;33.60;94.40
17992;DHT22;9121;50.926;5.340;2023-08-21T14:02:39;33.90;94.30
17992;DHT22;9121;50.926;5.340;2023-08-21T14:05:07;34.20;94.10
17992;DHT22;9121;50.926;5.340;2023-08-21T14:07:35;34.80;92.80
17992;DHT22;9121;50.926;5.340;2023-08-21T14:10:05;34.80;92.10
17992;DHT22;9121;50.926;5.340;2023-08-21T14:12:31;34.70;91.80
17992;DHT22;9121;50.926;5.340;2023-08-21T14:14:59;34.40;91.80
17992;DHT22;9121;50.926;5.340;2023-08-21T14:17:27;35.00;91.30
17992;DHT22;9121;50.926;5.340;2023-08-21T14:19:54;34.60;91.20
17992;DHT22;9121;50.926;5.340;2023-08-21T14:22:21;33.50;91.70
17992;DHT22;9121;50.926;5.340;2023-08-21T14:24:48;32.70;92.40
17992;DHT22;9121;50.926;5.340;2023-08-21T14:27:17;32.90;92.20
17992;DHT22;9121;50.926;5.340;2023-08-21T14:29:44;33.60;91.70
17992;DHT22;9121;50.926;5.340;2023-08-21T14:32:11;34.40;91.30
17992;DHT22;9121;50.926;5.340;2023-08-21T14:34:38;34.90;90.20
17992;DHT22;9121;50.926;5.340;2023-08-21T14:37:04;35.60;90.20
17992;DHT22;9121;50.926;5.340;2023-08-21T14:39:32;36.20;88.90
17992;DHT22;9121;50.926;5.340;2023-08-21T14:41:59;36.90;85.60
17992;DHT22;9121;50.926;5.340;2023-08-21T14:44:28;36.50;84.60
17992;DHT22;9121;50.926;5.340;2023-08-21T14:46:55;36.60;83.10
17992;DHT22;9121;50.926;5.340;2023-08-21T14:49:23;35.90;84.10
17992;DHT22;9121;50.926;5.340;2023-08-21T14:51:50;35.60;84.90
17992;DHT22;9121;50.926;5.340;2023-08-21T14:54:17;35.60;83.90
17992;DHT22;9121;50.926;5.340;2023-08-21T14:56:44;35.30;84.90
17992;DHT22;9121;50.926;5.340;2023-08-21T14:59:11;35.50;83.80
17992;DHT22;9121;50.926;5.340;2023-08-21T15:01:41;35.60;84.40
17992;DHT22;9121;50.926;5.340;2023-08-21T15:04:09;35.60;83.90
17992;DHT22;9121;50.926;5.340;2023-08-21T15:06:38;35.90;82.50
17992;DHT22;9121;50.926;5.340;2023-08-21T15:09:05;36.20;82.40
17992;DHT22;9121;50.926;5.340;2023-08-21T15:11:33;35.50;83.20
17992;DHT22;9121;50.926;5.340;2023-08-21T15:14:01;34.10;83.80
17992;DHT22;9121;50.926;5.340;2023-08-21T15:16:28;33.20;85.60
17992;DHT22;9121;50.926;5.340;2023-08-21T15:18:56;32.00;87.90
17992;DHT22;9121;50.926;5.340;2023-08-21T15:21:24;31.30;88.70
17992;DHT22;9121;50.926;5.340;2023-08-21T15:23:51;30.90;90.30
17992;DHT22;9121;50.926;5.340;2023-08-21T15:26:19;31.20;89.70
17992;DHT22;9121;50.926;5.340;2023-08-21T15:28:46;32.20;89.00
17992;DHT22;9121;50.926;5.340;2023-08-21T15:31:13;33.00;87.30
17992;DHT22;9121;50.926;5.340;2023-08-21T15:33:40;34.00;86.50
17992;DHT22;9121;50.926;5.340;2023-08-21T15:36:08;34.70;83.50
17992;DHT22;9121;50.926;5.340;2023-08-21T15:38:35;34.90;84.00
17992;DHT22;9121;50.926;5.340;2023-08-21T15:41:02;35.30;83.70
17992;DHT22;9121;50.926;5.340;2023-08-21T15:43:29;35.30;82.60
17992;DHT22;9121;50.926;5.340;2023-08-21T15:45:56;34.70;83.00
17992;DHT22;9121;50.926;5.340;2023-08-21T15:48:23;33.70;84.70